createdAt,value
2022-12-24T00:02:03.640Z,91.73
2022-12-24T00:04:35.723Z,91.84
2022-12-24T00:07:09.555Z,91.90
2022-12-24T00:09:40.180Z,91.94
2022-12-24T00:12:12.152Z,91.86
2022-12-24T00:14:44.281Z,91.81
2022-12-24T00:17:15.359Z,91.76
2022-12-24T00:19:46.142Z,91.70
2022-12-24T00:22:17.487Z,91.65
2022-12-24T00:24:48.858Z,91.62
2022-12-24T00:27:20.147Z,91.58
2022-12-24T00:29:50.549Z,91.52
2022-12-24T00:32:21.094Z,91.50
2022-12-24T00:34:51.994Z,91.49
2022-12-24T00:37:24.095Z,91.45
2022-12-24T00:39:54.625Z,91.48
2022-12-24T00:42:25.132Z,91.49
2022-12-24T00:44:56.118Z,91.53
2022-12-24T00:47:26.651Z,91.50
2022-12-24T00:49:57.179Z,91.49
2022-12-24T00:52:27.631Z,91.49
2022-12-24T00:54:58.501Z,91.49
2022-12-24T00:57:30.542Z,91.54
2022-12-24T01:00:01.194Z,91.51
2022-12-24T01:02:31.775Z,91.54
2022-12-24T01:05:13.025Z,91.54
2022-12-24T01:07:46.561Z,91.54
2022-12-24T01:10:20.025Z,91.49
2022-12-24T01:12:50.619Z,91.53
2022-12-24T01:15:21.475Z,91.54
2022-12-24T01:17:53.567Z,91.46
2022-12-24T01:20:29.265Z,91.42
2022-12-24T01:23:00.612Z,91.49
2022-12-24T01:25:32.621Z,91.54
2022-12-24T01:28:03.234Z,91.55
2022-12-24T01:30:33.735Z,91.54
2022-12-24T01:33:06.050Z,91.53
2022-12-24T01:35:38.006Z,91.54
2022-12-24T01:38:08.943Z,91.50
2022-12-24T01:41:02.444Z,91.51
2022-12-24T01:43:33.664Z,91.50
2022-12-24T01:46:07.362Z,91.57
2022-12-24T01:48:46.425Z,91.55
2022-12-24T01:51:36.281Z,91.52
2022-12-24T01:54:15.748Z,91.48
2022-12-24T01:56:49.384Z,91.52
2022-12-24T01:59:23.663Z,91.57
2022-12-24T02:01:57.509Z,91.57
2022-12-24T02:04:40.268Z,91.48
2022-12-24T02:07:11.943Z,91.50
2022-12-24T02:09:42.951Z,91.51
2022-12-24T02:12:14.953Z,91.51
2022-12-24T02:14:45.486Z,91.43
2022-12-24T02:17:25.944Z,91.42
2022-12-24T02:20:16.209Z,91.42
2022-12-24T02:23:20.288Z,91.36
2022-12-24T02:26:25.773Z,91.39
2022-12-24T02:29:22.242Z,91.38
2022-12-24T02:32:08.088Z,91.35
2022-12-24T02:34:47.762Z,91.32
2022-12-24T02:37:24.386Z,91.30
2022-12-24T02:40:03.587Z,91.28
2022-12-24T02:42:44.364Z,91.26
2022-12-24T02:45:20.886Z,91.27
2022-12-24T02:47:54.047Z,91.28
2022-12-24T02:50:29.192Z,91.20
2022-12-24T02:52:59.891Z,91.28
2022-12-24T02:55:39.077Z,91.26
2022-12-24T02:58:16.667Z,91.17
2022-12-24T03:00:53.000Z,91.19
2022-12-24T03:03:38.841Z,91.24
2022-12-24T03:06:14.019Z,91.18
2022-12-24T03:09:00.398Z,91.14
2022-12-24T03:11:35.553Z,91.09
2022-12-24T03:14:07.804Z,91.08
2022-12-24T03:16:39.563Z,91.09
2022-12-24T03:19:11.881Z,91.09
2022-12-24T03:21:44.760Z,91.10
2022-12-24T03:24:15.673Z,91.11
2022-12-24T03:26:48.622Z,91.02
2022-12-24T03:29:19.849Z,90.98
2022-12-24T03:31:54.184Z,90.94
2022-12-24T03:34:24.711Z,90.97
2022-12-24T03:36:55.701Z,91.01
2022-12-24T03:39:26.756Z,91.07
2022-12-24T03:41:57.370Z,91.07
2022-12-24T03:44:27.999Z,91.08
2022-12-24T03:46:58.901Z,91.07
2022-12-24T03:49:30.688Z,91.02
2022-12-24T03:52:01.395Z,91.02
2022-12-24T03:54:32.350Z,90.93
2022-12-24T03:57:02.871Z,90.84
2022-12-24T03:59:33.450Z,90.85
2022-12-24T04:02:04.184Z,90.81
2022-12-24T04:04:36.465Z,90.84
2022-12-24T04:07:07.687Z,90.93
2022-12-24T04:09:39.152Z,90.94
2022-12-24T04:12:09.890Z,90.91
2022-12-24T04:14:45.087Z,90.89
2022-12-24T04:17:18.464Z,90.91
2022-12-24T04:19:50.702Z,90.88
2022-12-24T04:22:21.625Z,90.95
2022-12-24T04:24:52.138Z,90.89
2022-12-24T04:27:29.935Z,90.94
2022-12-24T04:30:00.012Z,90.87
2022-12-24T04:32:30.501Z,90.79
2022-12-24T04:35:00.984Z,90.74
2022-12-24T04:37:32.989Z,90.76
2022-12-24T04:40:03.732Z,90.76
2022-12-24T04:42:34.256Z,90.74
2022-12-24T04:45:06.083Z,90.65
2022-12-24T04:47:36.508Z,90.62
2022-12-24T04:50:09.575Z,90.66
2022-12-24T04:52:42.307Z,90.66
2022-12-24T04:55:13.193Z,90.58
2022-12-24T04:57:46.214Z,90.58
2022-12-24T05:00:16.337Z,90.58
2022-12-24T05:02:49.639Z,90.61
2022-12-24T05:05:26.134Z,90.65
2022-12-24T05:07:58.251Z,90.54
2022-12-24T05:10:29.655Z,90.45
2022-12-24T05:13:02.981Z,90.39
2022-12-24T05:15:33.600Z,90.28
2022-12-24T05:18:04.310Z,90.23
2022-12-24T05:20:36.912Z,90.30
2022-12-24T05:23:25.722Z,90.18
2022-12-24T05:26:15.489Z,90.24
2022-12-24T05:28:45.824Z,90.43
2022-12-24T05:31:18.304Z,90.49
2022-12-24T05:33:54.151Z,90.48
2022-12-24T05:36:27.170Z,90.49
2022-12-24T05:38:58.017Z,90.52
2022-12-24T05:41:29.165Z,90.29
2022-12-24T05:43:59.809Z,90.25
2022-12-24T05:46:31.861Z,90.15
2022-12-24T05:49:03.011Z,90.14
2022-12-24T05:51:33.949Z,90.17
2022-12-24T05:54:06.541Z,90.21
2022-12-24T05:56:37.221Z,90.32
2022-12-24T05:59:09.017Z,90.36
2022-12-24T06:01:45.575Z,90.28
2022-12-24T06:04:16.342Z,90.13
2022-12-24T06:06:47.054Z,90.06
2022-12-24T06:09:17.554Z,90.13
2022-12-24T06:11:48.008Z,90.19
2022-12-24T06:14:18.533Z,90.34
2022-12-24T06:16:48.968Z,90.18
2022-12-24T06:19:19.706Z,90.15
2022-12-24T06:21:50.156Z,90.09
2022-12-24T06:24:21.017Z,90.08
2022-12-24T06:26:51.697Z,90.14
2022-12-24T06:29:22.142Z,90.21
2022-12-24T06:31:52.670Z,90.10
2022-12-24T06:34:24.690Z,90.09
2022-12-24T06:36:55.252Z,90.24
2022-12-24T06:39:25.884Z,90.21
2022-12-24T06:41:56.532Z,90.32
2022-12-24T06:44:28.649Z,90.48
2022-12-24T06:47:01.099Z,90.53
2022-12-24T06:49:34.569Z,90.57
2022-12-24T06:52:05.645Z,90.50
2022-12-24T06:54:36.635Z,90.39
2022-12-24T06:57:07.606Z,90.40
2022-12-24T06:59:38.107Z,90.45
2022-12-24T07:02:12.962Z,90.49
2022-12-24T07:04:43.566Z,90.43
2022-12-24T07:07:14.312Z,90.52
2022-12-24T07:09:45.161Z,90.46
2022-12-24T07:12:15.754Z,90.46
2022-12-24T07:14:47.609Z,90.44
2022-12-24T07:17:18.418Z,90.58
2022-12-24T07:19:49.093Z,90.42
2022-12-24T07:22:19.760Z,90.38
2022-12-24T07:24:51.824Z,90.43
2022-12-24T07:27:23.384Z,90.43
2022-12-24T07:29:58.041Z,90.30
2022-12-24T07:32:28.536Z,90.12
2022-12-24T07:34:59.005Z,90.23
2022-12-24T07:37:29.612Z,90.26
2022-12-24T07:40:00.414Z,90.24
2022-12-24T07:42:31.067Z,90.32
2022-12-24T07:45:01.744Z,90.40
2022-12-24T07:47:32.291Z,90.41
2022-12-24T07:50:03.611Z,90.38
2022-12-24T07:52:35.712Z,90.33
2022-12-24T07:55:07.746Z,90.38
2022-12-24T07:57:39.720Z,90.39
2022-12-24T08:00:13.323Z,90.50
2022-12-24T08:02:44.925Z,90.53
2022-12-24T08:05:16.784Z,90.54
2022-12-24T08:07:54.650Z,90.60
2022-12-24T08:10:20.186Z,90.53
2022-12-24T08:12:50.694Z,90.53
2022-12-24T08:15:21.602Z,90.63
2022-12-24T08:17:54.514Z,90.49
2022-12-24T08:20:25.196Z,90.53
2022-12-24T08:22:55.966Z,90.70
2022-12-24T08:25:27.615Z,90.73
2022-12-24T08:27:58.964Z,90.74
2022-12-24T08:30:29.608Z,90.78
2022-12-24T08:33:01.360Z,90.75
2022-12-24T08:35:34.205Z,90.72
2022-12-24T08:38:07.429Z,90.72
2022-12-24T08:40:37.951Z,90.62
2022-12-24T08:43:09.714Z,90.68
2022-12-24T08:45:41.272Z,90.61
2022-12-24T08:48:13.645Z,90.67
2022-12-24T08:50:46.626Z,90.60
2022-12-24T08:53:17.194Z,90.62
2022-12-24T08:55:55.704Z,90.60
2022-12-24T08:58:26.809Z,90.68
2022-12-24T09:00:59.743Z,90.63
2022-12-24T09:03:30.577Z,90.58
2022-12-24T09:06:06.034Z,90.54
2022-12-24T09:08:37.162Z,90.42
2022-12-24T09:11:20.863Z,90.44
2022-12-24T09:13:51.534Z,90.48
2022-12-24T09:16:23.942Z,90.52
2022-12-24T09:18:54.515Z,90.61
2022-12-24T09:21:25.301Z,90.52
2022-12-24T09:23:56.187Z,90.31
2022-12-24T09:26:31.829Z,90.26
2022-12-24T09:29:03.521Z,90.26
2022-12-24T09:31:36.084Z,90.21
2022-12-24T09:34:11.229Z,90.16
2022-12-24T09:36:43.427Z,90.16
2022-12-24T09:39:15.025Z,90.34
2022-12-24T09:42:20.766Z,90.19
2022-12-24T09:45:00.009Z,90.06
2022-12-24T09:47:40.580Z,90.21
2022-12-24T09:50:34.646Z,90.12
2022-12-24T09:53:08.258Z,89.88
2022-12-24T09:55:51.131Z,89.49
2022-12-24T09:58:30.637Z,89.93
2022-12-24T10:01:05.891Z,90.13
2022-12-24T10:03:37.239Z,90.24
2022-12-24T10:06:33.371Z,90.33
2022-12-24T10:09:06.890Z,90.13
2022-12-24T10:11:55.703Z,89.85
2022-12-24T10:14:37.039Z,90.03
2022-12-24T10:17:19.776Z,90.00
2022-12-24T10:20:11.380Z,90.12
2022-12-24T10:22:47.662Z,89.92
2022-12-24T10:25:33.728Z,89.99
2022-12-24T10:28:06.864Z,90.09
2022-12-24T10:30:39.361Z,90.13
2022-12-24T10:33:15.659Z,90.18
2022-12-24T10:35:49.176Z,90.20
2022-12-24T10:38:21.255Z,90.21
2022-12-24T10:40:54.723Z,90.35
2022-12-24T10:43:28.315Z,90.25
2022-12-24T10:46:04.198Z,90.21
2022-12-24T10:48:50.350Z,90.03
2022-12-24T10:51:22.640Z,90.18
2022-12-24T10:53:58.868Z,90.27
2022-12-24T10:56:29.467Z,90.14
2022-12-24T10:59:01.647Z,90.05
2022-12-24T11:01:50.194Z,89.81
2022-12-24T11:04:24.099Z,89.81
2022-12-24T11:07:08.068Z,89.84
2022-12-24T11:09:43.258Z,89.86
2022-12-24T11:12:29.689Z,89.33
2022-12-24T11:15:10.612Z,89.44
2022-12-24T11:17:43.442Z,89.01
2022-12-24T11:20:21.691Z,89.01
2022-12-24T11:22:52.379Z,89.33
2022-12-24T11:25:28.129Z,89.32
2022-12-24T11:28:14.943Z,89.36
2022-12-24T11:31:06.633Z,89.38
2022-12-24T11:33:49.821Z,89.49
2022-12-24T11:36:24.739Z,89.59
2022-12-24T11:38:59.149Z,89.60
2022-12-24T11:41:32.863Z,89.76
2022-12-24T11:44:07.386Z,89.83
2022-12-24T11:46:43.458Z,89.64
2022-12-24T11:49:19.915Z,89.47
2022-12-24T11:52:24.745Z,89.44
2022-12-24T11:54:58.148Z,89.17
2022-12-24T11:57:32.815Z,89.16
2022-12-24T12:00:05.833Z,89.42
2022-12-24T12:02:39.936Z,89.35
2022-12-24T12:05:19.935Z,89.25
2022-12-24T12:07:58.648Z,89.16
2022-12-24T12:10:32.806Z,89.23
2022-12-24T12:13:14.874Z,89.24
2022-12-24T12:16:00.407Z,89.21
2022-12-24T12:18:38.018Z,89.18
2022-12-24T12:21:14.911Z,88.96
2022-12-24T12:24:00.367Z,88.57
2022-12-24T12:26:33.403Z,88.38
2022-12-24T12:29:29.263Z,88.01
2022-12-24T12:32:09.375Z,87.77
2022-12-24T12:34:44.050Z,87.59
2022-12-24T12:37:21.111Z,87.40
2022-12-24T12:39:52.327Z,87.37
2022-12-24T12:42:39.404Z,87.20
2022-12-24T12:45:13.404Z,87.40
2022-12-24T12:47:52.477Z,87.17
2022-12-24T12:50:31.901Z,87.79
2022-12-24T12:53:17.851Z,87.98
2022-12-24T12:56:07.912Z,88.06
2022-12-24T12:58:48.868Z,88.26
2022-12-24T13:01:32.203Z,88.33
2022-12-24T13:04:15.643Z,88.19
2022-12-24T13:07:06.044Z,87.85
2022-12-24T13:09:45.147Z,88.34
2022-12-24T13:12:37.780Z,88.46
2022-12-24T13:15:44.469Z,88.14
2022-12-24T13:18:40.778Z,88.30
2022-12-24T13:21:19.830Z,88.60
2022-12-24T13:23:50.738Z,88.48
2022-12-24T13:26:21.154Z,88.64
2022-12-24T13:28:52.174Z,88.44
2022-12-24T13:31:25.382Z,88.14
2022-12-24T13:34:01.094Z,88.28
2022-12-24T13:36:51.298Z,88.61
2022-12-24T13:39:22.015Z,88.57
2022-12-24T13:41:53.364Z,88.51
2022-12-24T13:44:25.141Z,88.75
2022-12-24T13:47:05.141Z,88.73
2022-12-24T13:49:42.634Z,88.76
2022-12-24T13:52:16.255Z,88.86
2022-12-24T13:54:53.239Z,88.85
2022-12-24T13:57:44.883Z,88.49
2022-12-24T14:00:28.619Z,88.39
2022-12-24T14:03:02.090Z,88.37
2022-12-24T14:05:38.741Z,88.36
2022-12-24T14:08:29.549Z,88.13
2022-12-24T14:11:13.687Z,88.43
2022-12-24T14:13:51.714Z,88.59
2022-12-24T14:16:31.224Z,88.91
2022-12-24T14:19:07.428Z,89.24
2022-12-24T14:21:40.960Z,89.37
2022-12-24T14:24:17.148Z,89.06
2022-12-24T14:26:50.722Z,89.23
2022-12-24T14:29:39.052Z,89.45
2022-12-24T14:32:15.888Z,89.25
2022-12-24T14:34:46.625Z,89.02
2022-12-24T14:37:18.168Z,88.84
2022-12-24T14:39:51.841Z,88.95
2022-12-24T14:42:40.500Z,89.19
2022-12-24T14:45:30.768Z,89.50
2022-12-24T14:48:07.043Z,89.45
2022-12-24T14:50:59.911Z,89.56
2022-12-24T14:54:06.916Z,89.59
2022-12-24T14:56:37.602Z,89.19
2022-12-24T14:59:20.829Z,89.13
2022-12-24T15:01:51.936Z,88.87
2022-12-24T15:04:22.754Z,88.69
2022-12-24T15:06:57.439Z,88.45
2022-12-24T15:09:31.463Z,88.19
2022-12-24T15:12:05.171Z,88.72
2022-12-24T15:14:38.683Z,89.00
2022-12-24T15:17:14.044Z,88.98
2022-12-24T15:19:47.303Z,88.97
2022-12-24T15:22:28.520Z,89.25
2022-12-24T15:24:59.141Z,89.33
2022-12-24T15:27:32.639Z,89.39
2022-12-24T15:30:06.158Z,89.39
2022-12-24T15:32:37.110Z,89.43
2022-12-24T15:35:08.117Z,89.56
2022-12-24T15:37:40.503Z,89.62
2022-12-24T15:40:14.298Z,89.71
2022-12-24T15:42:46.767Z,89.79
2022-12-24T15:45:27.131Z,89.97
2022-12-24T15:47:58.923Z,89.88
2022-12-24T15:50:36.883Z,89.88
2022-12-24T15:53:20.640Z,89.85
2022-12-24T15:56:08.006Z,89.96
2022-12-24T15:58:44.441Z,90.05
2022-12-24T16:01:19.644Z,90.06
2022-12-24T16:03:56.125Z,90.11
2022-12-24T16:06:28.304Z,90.13
2022-12-24T16:08:58.817Z,90.01
2022-12-24T16:11:37.697Z,90.13
2022-12-24T16:14:18.422Z,90.22
2022-12-24T16:16:52.684Z,90.18
2022-12-24T16:19:25.526Z,90.27
2022-12-24T16:22:01.366Z,90.27
2022-12-24T16:24:32.646Z,90.30
2022-12-24T16:27:08.464Z,90.55
2022-12-24T16:29:38.910Z,90.57
2022-12-24T16:32:27.540Z,90.59
2022-12-24T16:34:58.188Z,90.71
2022-12-24T16:37:29.685Z,90.71
2022-12-24T16:40:00.914Z,90.91
2022-12-24T16:42:49.388Z,90.89
2022-12-24T16:45:22.584Z,90.86
2022-12-24T16:47:53.099Z,90.85
2022-12-24T16:50:25.271Z,90.93
2022-12-24T16:52:56.002Z,90.93
2022-12-24T16:55:26.521Z,91.04
2022-12-24T16:57:58.312Z,91.15
2022-12-24T17:00:28.776Z,91.26
2022-12-24T17:02:59.510Z,91.32
2022-12-24T17:05:30.253Z,91.33
2022-12-24T17:08:02.192Z,91.33
2022-12-24T17:10:33.539Z,91.32
2022-12-24T17:13:05.033Z,91.33
2022-12-24T17:15:35.534Z,91.38
2022-12-24T17:18:08.005Z,91.44
2022-12-24T17:20:39.939Z,91.51
2022-12-24T17:23:10.904Z,91.59
2022-12-24T17:25:41.597Z,91.59
2022-12-24T17:28:12.996Z,91.64
2022-12-24T17:30:45.910Z,91.68
2022-12-24T17:33:19.378Z,91.72
2022-12-24T17:35:52.348Z,91.73
2022-12-24T17:38:24.491Z,91.71
2022-12-24T17:41:05.018Z,91.71
2022-12-24T17:43:36.605Z,91.68
2022-12-24T17:46:11.880Z,91.52
2022-12-24T17:48:44.037Z,91.48
2022-12-24T17:51:16.524Z,91.37
2022-12-24T17:53:47.111Z,91.32
2022-12-24T17:56:18.507Z,91.35
2022-12-24T17:58:49.038Z,91.24
2022-12-24T18:01:25.687Z,91.21
2022-12-24T18:03:58.003Z,91.22
2022-12-24T18:06:30.352Z,91.25
2022-12-24T18:09:02.105Z,91.18
2022-12-24T18:11:35.080Z,91.17
2022-12-24T18:14:06.480Z,91.00
2022-12-24T18:16:39.844Z,90.93
2022-12-24T18:19:14.286Z,91.01
2022-12-24T18:21:48.905Z,91.03
2022-12-24T18:24:19.641Z,90.99
2022-12-24T18:26:51.220Z,90.70
2022-12-24T18:29:22.483Z,90.70
2022-12-24T18:31:52.963Z,90.53
2022-12-24T18:34:23.485Z,90.33
2022-12-24T18:36:55.604Z,90.32
2022-12-24T18:39:26.780Z,90.18
2022-12-24T18:41:57.223Z,90.27
2022-12-24T18:44:30.047Z,90.19
2022-12-24T18:47:00.579Z,90.22
2022-12-24T18:49:33.678Z,90.14
2022-12-24T18:52:09.271Z,90.11
2022-12-24T18:54:41.380Z,90.18
2022-12-24T18:57:11.779Z,90.20
2022-12-24T18:59:43.545Z,90.14
2022-12-24T19:02:14.091Z,90.13
2022-12-24T19:04:45.104Z,90.08
2022-12-24T19:07:15.870Z,89.82
2022-12-24T19:09:48.374Z,89.59
2022-12-24T19:12:20.597Z,89.82
2022-12-24T19:14:51.019Z,89.58
2022-12-24T19:17:21.475Z,89.41
2022-12-24T19:19:56.063Z,89.68
2022-12-24T19:22:29.949Z,89.54
2022-12-24T19:25:02.033Z,89.61
2022-12-24T19:27:32.399Z,89.77
2022-12-24T19:30:03.148Z,89.93
2022-12-24T19:32:34.375Z,89.99
2022-12-24T19:35:05.668Z,89.75
2022-12-24T19:37:36.340Z,89.60
2022-12-24T19:40:09.102Z,89.91
2022-12-24T19:42:39.762Z,89.76
2022-12-24T19:45:11.752Z,89.93
2022-12-24T19:47:42.292Z,90.17
2022-12-24T19:50:12.911Z,90.10
2022-12-24T19:52:43.528Z,90.03
2022-12-24T19:55:15.086Z,89.96
2022-12-24T19:57:47.149Z,90.06
2022-12-24T20:00:17.947Z,90.01
2022-12-24T20:02:48.662Z,90.11
2022-12-24T20:05:20.286Z,90.25
2022-12-24T20:07:50.839Z,90.40
2022-12-24T20:10:21.238Z,90.57
2022-12-24T20:12:52.168Z,90.57
2022-12-24T20:15:23.106Z,90.64
2022-12-24T20:17:54.618Z,90.50
2022-12-24T20:20:25.030Z,90.49
2022-12-24T20:22:55.672Z,90.53
2022-12-24T20:25:26.765Z,90.38
2022-12-24T20:27:57.747Z,90.28
2022-12-24T20:30:29.319Z,90.48
2022-12-24T20:32:59.820Z,90.43
2022-12-24T20:35:30.237Z,90.42
2022-12-24T20:38:00.708Z,90.43
2022-12-24T20:40:31.206Z,90.28
2022-12-24T20:43:02.038Z,90.35
2022-12-24T20:45:32.595Z,90.26
2022-12-24T20:48:03.299Z,90.33
2022-12-24T20:50:33.782Z,90.26
2022-12-24T20:53:04.197Z,90.34
2022-12-24T20:55:36.387Z,90.18
2022-12-24T20:58:07.792Z,89.99
2022-12-24T21:00:38.494Z,90.06
2022-12-24T21:03:10.224Z,90.16
2022-12-24T21:05:44.156Z,89.62
2022-12-24T21:08:16.022Z,89.94
2022-12-24T21:10:47.724Z,89.91
2022-12-24T21:13:18.675Z,89.63
2022-12-24T21:15:49.259Z,89.86
2022-12-24T21:18:19.754Z,89.90
2022-12-24T21:20:50.143Z,89.52
2022-12-24T21:23:23.051Z,89.57
2022-12-24T21:26:02.807Z,89.65
2022-12-24T21:28:34.212Z,89.46
2022-12-24T21:31:10.899Z,89.27
2022-12-24T21:33:42.527Z,88.86
2022-12-24T21:36:14.857Z,89.11
2022-12-24T21:38:45.424Z,89.23
2022-12-24T21:41:18.831Z,89.16
2022-12-24T21:43:51.370Z,89.08
2022-12-24T21:46:28.000Z,89.19
2022-12-24T21:49:13.876Z,89.30
2022-12-24T21:51:46.949Z,89.08
2022-12-24T21:54:23.343Z,88.92
2022-12-24T21:57:16.239Z,89.13
2022-12-24T21:59:46.799Z,89.09
2022-12-24T22:02:19.853Z,88.69
2022-12-24T22:04:50.429Z,88.72
2022-12-24T22:07:44.488Z,88.80
2022-12-24T22:10:33.696Z,88.95
2022-12-24T22:13:08.515Z,88.92
2022-12-24T22:15:47.700Z,88.91
2022-12-24T22:18:20.837Z,88.93
2022-12-24T22:20:53.311Z,88.98
2022-12-24T22:23:26.898Z,88.72
2022-12-24T22:25:58.852Z,88.59
2022-12-24T22:28:32.806Z,88.84
2022-12-24T22:31:04.446Z,88.90
2022-12-24T22:33:36.737Z,88.61
2022-12-24T22:36:08.463Z,88.32
2022-12-24T22:38:43.411Z,88.81
2022-12-24T22:41:14.623Z,89.04
2022-12-24T22:43:46.511Z,88.96
2022-12-24T22:46:18.029Z,89.09
2022-12-24T22:48:48.585Z,89.37
2022-12-24T22:51:22.890Z,89.54
2022-12-24T22:53:53.436Z,89.54
2022-12-24T22:56:25.967Z,89.39
2022-12-24T22:58:57.484Z,89.64
2022-12-24T23:01:37.733Z,90.14
2022-12-24T23:04:09.297Z,88.64
2022-12-24T23:06:40.451Z,87.25
2022-12-24T23:09:13.393Z,86.00
2022-12-24T23:11:45.695Z,86.29
2022-12-24T23:14:38.856Z,86.37
2022-12-24T23:17:12.501Z,87.01
2022-12-24T23:19:43.403Z,87.58
2022-12-24T23:22:14.148Z,87.84
2022-12-24T23:24:45.192Z,88.44
2022-12-24T23:27:16.212Z,88.70
2022-12-24T23:29:46.628Z,89.12
2022-12-24T23:32:17.373Z,89.31
2022-12-24T23:34:48.021Z,89.50
2022-12-24T23:37:22.200Z,89.50
2022-12-24T23:39:54.041Z,89.48
2022-12-24T23:42:26.403Z,89.67
2022-12-24T23:44:56.778Z,89.50
2022-12-24T23:47:28.630Z,89.78
2022-12-24T23:50:00.325Z,89.80
2022-12-24T23:52:31.646Z,90.03
2022-12-24T23:55:02.753Z,89.87
2022-12-24T23:57:33.484Z,90.12
